Skip to content

GuitarMania

제가 이리저리 둘러봐도 뭐가 좋은 지 모르겠어요ㅜㅜ
괜찮다 싶으면 너무 비싸고~~
싸다~ 싶으면 안좋은것 같고....
뭔가 좋은 것 없나요??ㅠㅜ
* 수님에 의해서 게시물 복사되었습니다 (2011-05-26 07:32)
Comment '4'
  • 11 2011.05.19 16:24 (*.145.223.171)
    아날로그방식은 정확도가 가면갈수록 떨어지지만, 크게 초기셋팅? 하면 또 그럭저럭 쓸만합니다.
    전자방식은 정확도는 있는거 같은데..당췌 신뢰가안갑니다...:: 또 이건 아날로그랑 다르게 초기셋팅이 즉 센서교환이라.....ㅎㅎㅎ

    결국 케이스에는 전자습도계를 휴대는 하지만, 그건 개의치않고 보통 아날로그 습도계를 많이 참조합니다.

    참고로 아날로그방식은 5-6년전 콩쥐님이 추천했던거 가지고 있고.. 7000~8000원
    전자방식은 코**에서 팔았던 오**스 습도계 가지고있습니다. 한 2~3만원정도.....?

    기타를 주로 지정된 장소에서 많이 치신다면, 아날로그가 좋습니다.

  • 케이스삽니다. 2011.05.19 17:57 (*.141.121.129)
    콩쥐님께서 추천하셨었다는 습도계가 무엇인지 알 수 있을까요??ㅠㅠ
  • 리브라 2011.05.19 18:46 (*.131.167.73)
    패션 온습도계입니다. 6000원에 옥션에서 팔아요.

    http://itempage3.auction.co.kr/DetailView.aspx?ItemNo=A505660049&keyword=%c6%d0%bc%c7%20%bf%c2%bd%c0%b5%b5%b0%e8&Fwk=%c6%d0%bc%c7%20%bf%c2%bd%c0%b5%b5%b0%e8&scoredtype=0&frm2=through&acode=SRP_SV_0301
  • 명노창 2011.05.19 21:06 (*.171.215.102)
    제 공방에 있는 독일 바리고(오차범위 3%)습도계로 여러가지를 체크해 보았는데 일제 드레텍제품이 가장 정확하게맞더군요..다른제품들은 오차범위가 너무 커서 모두 버렸습니다..
    가격도 싸고 정확합니다.
    http://itempage3.auction.co.kr/DetailView.aspx?ItemNo=A541410453&keyword=%b5%e5%b7%b9%c5%d8&Fwk=%b5%e5%b7%b9%c5%d8&scoredtype=1&frm2=through&acode=SRP_SV_0301
?

List of Articles
번호 제목 글쓴이 날짜 조회 수
1546 최동수 선생님이 새로 만드신 총 기타... 18 file 대건안드레아 2012.06.30 13666
1545 세계적인 기타제작가 액자 전달식 1 file 대건안드레아 2012.06.30 9232
1544 왜 4번줄만 끊어지는가? 7 돌빈대 2012.06.15 13710
1543 사운드홀의 비밀 15 돌바퀴 2012.06.14 14487
1542 기타의 공명은 제갈공명인가? 4 돌모기 2012.06.14 9188
1541 기타와 초음파진단기 8 돌파리 2012.06.12 8389
1540 공명은 음을 확대하는가? 6 EchoOff 2012.06.04 9859
1539 실험정신(공명) 7 제갈공명 2012.06.04 10411
1538 특별한 기타.....음향반사판기타 39 file 콩쥐 2012.06.02 12894
1537 클래식기타 컬렉션 2008 1 file 리브라 2012.06.12 11772
1536 현장이 짧은 기타에 대하여-2 5 최동수 2012.06.11 9816
1535 현장이 짧은 기타에 대하여-1 7 최동수 2012.06.10 13062
1534 헬름홀츠의 공기공명 1 file 최동수 2012.06.08 14464
1533 발 받침대 한컷 4 file 대건안드레아 2012.05.12 12025
1532 오일바니쉬... 4 다울랜드.. 2012.04.25 11933
1531 기타 모델링 2 file 이동혁 2012.04.10 10600
1530 스트링 게이지와 음정 관계 와일드프론티어 2012.04.09 8681
1529 기타의 성능 (jeffrey elliot) 1 2012.04.09 8926
1528 책 안내 - "기타 명기와 명장" 비우자 2012.02.14 11924
1527 간단한 댐핏 만들기 13 file 리브라 2012.01.04 16858
1526 자연스런 습도유지. 6 file 2012.01.21 14272
1525 이병우씨 듀얼기타!!ㅋㅋ 2 file 은찬아빠 2012.02.07 13811
1524 Scott Tennant가 연주하는 Daniel Friederich 기타 scdj 2011.12.06 10470
1523 탄소 섬유로 만든 기타 3 cf 2011.12.02 15250
1522 FTA와 guitar 4 == 2011.11.29 9939
1521 Andres Marin 모델 기타 26 최동수 2011.11.13 10775
1520 넥, 지판가공.. 제작자님들 조언 구합니다... 7 김성일 2011.11.04 10007
1519 드디어 기타를 바꾸었읍니다 (베르나베 기타...) 9 김브림 2011.10.31 14069
1518 댓글 퍼왔어요 2 file 언니 2011.09.18 8537
1517 Professional guitarists: their guitars - 2 6 리브라 2011.10.25 12382
1516 Professional guitarists: their guitars - 1 리브라 2011.10.25 15022
1515 바리오스 망고레의 기타 7 file 2011.10.24 12661
1514 Agustin Barrios' original guitar (1914) 7 고정석 2011.10.25 10966
1513 기타 제작.. 3 가람 2011.10.24 12057
1512 GFA 2011 Luthier's Showcase 2 jfs 2011.07.17 12875
1511 시거 박스 기타(Cigar Box Guitars) 7 고정석 2011.07.13 12942
1510 헐거워진 프렛 14 file 리브라 2011.06.18 12116
1509 그것을알고싶다! 하카란다(최종판) 22 file 조국건 2011.05.23 17805
» 클래식기타 에 사용할 온습도계 추천좀 부탁드립니다~ 4 케이스삽니다 2011.05.19 11541
1507 하카란다 꽃 6 file 조국건 2011.05.15 13730
1506 [re] 하카란다 꽃의 근접사진 디테일 5 file 조국건 2011.05.18 10054
1505 [re] 하카란다 꽃 file 파라디소 2011.05.17 8318
1504 2홀 슈퍼칩 3 file 리브라 2011.05.12 11468
1503 tornavoz 이용으로 음색의 변화동영상 17 쥐언니 2011.04.28 9312
1502 황칠 도료 제품 등장 2 보리 2011.04.03 12558
1501 Anders Miolin이 연주하는 The 13-string Chiavi-Miolin Guitar 5 고정석 2011.02.18 10770
1500 Fan Frets Guitar 8 file 고정석 2011.02.17 13193
1499 도미니크 필드 인터뷰 7 idf 2011.02.06 10790
1498 기타 제작용 목재와 대체목에 대해 잘 설명해 놓은 글이 있어서 링크해봅니다. 1 hesed 2011.01.31 12778
1497 포크기타 반음계 2 바람들이 2011.01.22 8160
1496 명기파는곳 1 쥐며느리 2010.12.14 13269
1495 스몰맨기타 모델 file 스몰 2010.12.14 14185
1494 Wood & Pearl Guitar Rosette 2 고정석 2010.12.10 10025
1493 메이플로즈 기타 만들기-1 165 최동수 2010.12.02 19635
1492 국내외 기타 레이블 모음 5 오덕구 2010.09.29 11533
1491 높은 프렛(지판에 박힌 쇠)을 구할 수 있나요? 14 highdama 2010.09.22 12527
1490 일본에 유명한 명기 클래식 기타 악기샾좀 알려주세요 7 궁금이 2010.08.02 12975
1489 Arm rest 구입처 문의 또는 대용품 문의 17 Realforce 2010.04.06 10252
1488 [re] Arm rest 구입처 문의 또는 대용품 문의 2 file Realforce 2010.04.23 10575
1487 12홀 브릿지는 장력이 센가요? 17 브릿지 2010.05.18 10118
1486 고수님들....새들 가공에 대해서 질문요... 14 file 몰디브 2010.05.17 11602
1485 목공기계(테이블 쏘우, 기계톱)의 위험성. 11 콩쥐 2010.03.28 13345
1484 Fret Dressing and Set-Up for Classical guitar 6 고정석 2010.03.27 8402
1483 기타 목재 문의...? 3 왔다구나 2010.03.25 10813
1482 [re] 현장 조정가능한 기타를 만들수 없나요 6 file 파크닝팬 2010.03.27 8740
1481 [re] 현장 조정가능한 기타를 만들수 없나요 37 file 쏠레아 2010.03.24 8910
1480 쏠레아님께 질문! 1 file 도치 2010.03.19 8925
1479 하현주(saddle) 미세조정 6 file 쏠레아 2010.03.15 16134
1478 싸즈(saz) 의sound hole(울림구멍) 1 file chokukkon 2010.03.11 8441
1477 Sound hole = 소리 구멍??? 11 쏠레아 2010.03.10 9118
1476 기타의 액션 3 쏠레아 2010.03.08 8200
1475 왜? 49 file 쏠레아 2010.03.07 9818
1474 존길버트와 알마기타 11 재미난기타 2010.03.01 12869
1473 기타의 음량 6 쏠레아 2010.02.28 11223
1472 야마하 Grand Concert 41 모델 아시는 분 계세요? 5 ㅁㅁ 2010.02.25 8210
1471 기타제작가 콩쥐님 보세요. 52 file 쏠레아 2010.02.25 12211
1470 [re] 기타제작가 콩쥐님 보세요. 2 file 저기 2010.02.28 6299
1469 나일론현/스틸현 12 쏠레아 2010.02.22 7950
1468 하이텐션 줄/로우텐션 줄 9 쏠레아 2010.02.20 11672
1467 수리, 중고, 세팅... 1 file 콩쥐 2010.02.19 7829
1466 헤드각과 현의 장력...실험 18 삭제... 2010.02.20 7726
1465 [re] 헤드각과 현의 장력...실험 10 file 쏠레아 2010.02.22 7761
1464 경험으로 깨달은 장력의세기 26 블루고추 2010.02.19 9021
1463 기타리스트들이 애용한 기타들 12 file 고정석 2010.02.02 10283
1462 기타재료 콩쥐 2010.01.31 7720
1461 가격과 소리 69 100호유저 2010.01.03 13600
1460 그렉 스몰맨 Greg Smallman 에게 질문 있으신 분 홍콩매니아 2009.12.13 7875
1459 죤 윌리엄즈의 스몰맨공방 방문 1 파크닝팬 2009.12.13 10273
1458 미분음 기타를 구할수 있을까요? 3 현대음악 2009.12.09 6432
1457 흑단(에보니).....최동수 3 콩쥐 2009.12.08 10496
1456 명기의 비교 감상 - 라그리마 14 file 파크닝팬 2009.12.06 10531
1455 스몰맨과 죤 윌리엄스~ 25 JS 2009.11.28 10565
1454 [re] 스몰맨 격자 살모양 4 파크닝팬 2009.11.29 7520
1453 [re] 스몰맨과 죤 윌리엄스~ secret Acunetix 2009.11.29 1
1452 목공기계를 쓸때는 항상 안전하게...(퍼온글) 10 file 콩쥐 2009.11.28 10333
1451 일렉트릭 클래식 기타를 구입하려고 합니다^^ file 기타매니아 2009.11.15 7149
1450 13현 기타 5 13s 2009.11.13 5777
1449 최동수 선생님께 질문을 올립니다.... 15 STELLO 2009.10.30 5720
1448 12현기타 자세히보기 15 file 콩쥐 2009.09.30 8847
1447 고려악기에서 만든 기타라는데.. 1 file Think 2009.10.12 9629
Board Pagination ‹ Prev 1 2 3 4 5 6 7 8 9 10 11 12 13 14 15 16 17 Next ›
/ 17

나눔글꼴 설치 안내


이 PC에는 나눔글꼴이 설치되어 있지 않습니다.

이 사이트를 나눔글꼴로 보기 위해서는
나눔글꼴을 설치해야 합니다.

설치 취소

Designed by sketchbooks.co.kr / sketchbook5 board skin

Sketchbook5, 스케치북5

Sketchbook5, 스케치북5

Sketchbook5, 스케치북5

Sketchbook5, 스케치북5

Powered by Xpress Engine / Designed by hikaru100

abcXYZ, 세종대왕,1234

abcXYZ, 세종대왕,1234